sensor_id;sensor_type;location;lat;lon;timestamp;pressure;altitude;pressure_sealevel;temperature;humidity
60427;BME280;46274;47.168;27.604;2023-07-13T06:03:32;99693.53;;;28.00;52.05
60427;BME280;46274;47.168;27.604;2023-07-13T06:24:51;99336.59;;;26.29;52.92
60427;BME280;46274;47.168;27.604;2023-07-13T06:37:54;99573.56;;;27.58;50.63
60427;BME280;46274;47.168;27.604;2023-07-13T07:40:20;99706.69;;;29.11;50.27
60427;BME280;46274;47.168;27.604;2023-07-13T08:41:28;99491.94;;;29.34;45.42
60427;BME280;46274;47.168;27.604;2023-07-13T09:49:17;99639.00;;;32.06;43.05
60427;BME280;46274;47.168;27.604;2023-07-13T11:38:15;99443.00;;;32.77;34.71
60427;BME280;46274;47.168;27.604;2023-07-13T11:58:31;99547.81;;;21.68;78.59
60427;BME280;46274;47.168;27.604;2023-07-13T12:04:37;99461.97;;;21.22;86.97
60427;BME280;46274;47.168;27.604;2023-07-13T12:10:46;99279.75;;;21.46;80.59
60427;BME280;46274;47.168;27.604;2023-07-13T12:16:50;99362.06;;;22.42;78.61
60427;BME280;46274;47.168;27.604;2023-07-13T12:30:06;99231.97;;;23.31;68.09
60427;BME280;46274;47.168;27.604;2023-07-13T12:36:30;99345.13;;;24.08;67.72
60427;BME280;46274;47.168;27.604;2023-07-13T12:42:41;99355.25;;;23.52;70.87
60427;BME280;46274;47.168;27.604;2023-07-13T12:49:00;99278.72;;;22.81;72.25
60427;BME280;46274;47.168;27.604;2023-07-13T12:55:20;99256.91;;;22.44;73.32
60427;BME280;46274;47.168;27.604;2023-07-13T13:01:28;99427.69;;;23.29;74.72
60427;BME280;46274;47.168;27.604;2023-07-13T13:07:53;99352.47;;;22.91;76.10
60427;BME280;46274;47.168;27.604;2023-07-13T13:14:05;99511.19;;;24.03;76.00
60427;BME280;46274;47.168;27.604;2023-07-13T13:26:53;99231.50;;;22.83;72.72
60427;BME280;46274;47.168;27.604;2023-07-13T13:33:00;99508.75;;;24.81;72.96
60427;BME280;46274;47.168;27.604;2023-07-13T13:39:34;99360.53;;;24.29;72.48
60427;BME280;46274;47.168;27.604;2023-07-13T13:46:47;99478.63;;;25.14;69.50
60427;BME280;46274;47.168;27.604;2023-07-13T14:01:31;99322.00;;;24.38;70.59
60427;BME280;46274;47.168;27.604;2023-07-13T14:16:17;99387.69;;;24.82;67.29
60427;BME280;46274;47.168;27.604;2023-07-13T14:22:56;99301.22;;;24.46;65.40
60427;BME280;46274;47.168;27.604;2023-07-13T14:29:29;99441.75;;;25.87;64.59
60427;BME280;46274;47.168;27.604;2023-07-13T14:43:14;99425.91;;;26.60;60.64
60427;BME280;46274;47.168;27.604;2023-07-13T15:04:10;99407.16;;;27.09;58.66
60427;BME280;46274;47.168;27.604;2023-07-13T15:10:58;99280.44;;;26.32;56.44
60427;BME280;46274;47.168;27.604;2023-07-13T15:24:09;99286.56;;;26.72;55.55
60427;BME280;46274;47.168;27.604;2023-07-13T15:30:31;99281.94;;;26.81;55.14
60427;BME280;46274;47.168;27.604;2023-07-13T15:36:42;99296.09;;;26.98;55.16
60427;BME280;46274;47.168;27.604;2023-07-13T15:42:46;99150.41;;;26.20;54.70
60427;BME280;46274;47.168;27.604;2023-07-13T15:48:59;99350.66;;;27.60;55.72
60427;BME280;46274;47.168;27.604;2023-07-13T15:55:02;99306.97;;;27.14;55.05
60427;BME280;46274;47.168;27.604;2023-07-13T16:01:22;99219.16;;;26.80;55.47
60427;BME280;46274;47.168;27.604;2023-07-13T16:07:25;99191.47;;;26.56;56.31
60427;BME280;46274;47.168;27.604;2023-07-13T16:13:29;99094.38;;;25.99;56.11
60427;BME280;46274;47.168;27.604;2023-07-13T16:19:42;99328.50;;;27.69;55.33
60427;BME280;46274;47.168;27.604;2023-07-13T16:25:49;99218.91;;;26.76;55.45
60427;BME280;46274;47.168;27.604;2023-07-13T16:32:18;99320.75;;;27.52;56.50
60427;BME280;46274;47.168;27.604;2023-07-13T16:38:51;99322.22;;;27.63;56.71
60427;BME280;46274;47.168;27.604;2023-07-13T16:45:11;99251.00;;;27.02;57.94
60427;BME280;46274;47.168;27.604;2023-07-13T16:51:56;99298.75;;;27.23;59.48
60427;BME280;46274;47.168;27.604;2023-07-13T16:58:14;99283.31;;;27.30;58.92
60427;BME280;46274;47.168;27.604;2023-07-13T17:04:29;99266.97;;;27.10;59.25
60427;BME280;46274;47.168;27.604;2023-07-13T17:10:34;98933.38;;;24.58;60.93
60427;BME280;46274;47.168;27.604;2023-07-13T17:16:55;99325.25;;;26.82;62.13
60427;BME280;46274;47.168;27.604;2023-07-13T17:23:28;99328.88;;;26.83;62.27
60427;BME280;46274;47.168;27.604;2023-07-13T17:29:35;99198.13;;;25.60;62.92
60427;BME280;46274;47.168;27.604;2023-07-13T17:36:02;99278.41;;;26.19;61.53
60427;BME280;46274;47.168;27.604;2023-07-13T17:42:12;99154.03;;;25.16;62.53
60427;BME280;46274;47.168;27.604;2023-07-13T17:48:14;99363.53;;;26.28;62.09
60427;BME280;46274;47.168;27.604;2023-07-13T17:54:24;98972.44;;;23.69;61.90
60427;BME280;46274;47.168;27.604;2023-07-13T18:00:45;99289.16;;;25.58;62.34
60427;BME280;46274;47.168;27.604;2023-07-13T18:06:55;99368.19;;;25.90;62.69
60427;BME280;46274;47.168;27.604;2023-07-13T18:13:24;99159.19;;;24.40;63.46
60427;BME280;46274;47.168;27.604;2023-07-13T18:19:39;98940.34;;;22.94;63.68
60427;BME280;46274;47.168;27.604;2023-07-13T18:25:45;99352.44;;;25.56;63.85
60427;BME280;46274;47.168;27.604;2023-07-13T18:31:47;99354.66;;;25.54;64.05
60427;BME280;46274;47.168;27.604;2023-07-13T18:37:55;99246.75;;;24.70;65.21
60427;BME280;46274;47.168;27.604;2023-07-13T18:44:10;99370.22;;;25.50;63.77
60427;BME280;46274;47.168;27.604;2023-07-13T18:56:34;99207.59;;;24.08;65.95
60427;BME280;46274;47.168;27.604;2023-07-13T19:02:45;99245.31;;;24.38;65.10
60427;BME280;46274;47.168;27.604;2023-07-13T19:08:47;99387.72;;;25.16;65.62
60427;BME280;46274;47.168;27.604;2023-07-13T19:14:57;98965.97;;;22.50;65.77
60427;BME280;46274;47.168;27.604;2023-07-13T19:21:02;99166.59;;;23.66;66.67
60427;BME280;46274;47.168;27.604;2023-07-13T19:27:26;99162.44;;;23.08;69.84
60427;BME280;46274;47.168;27.604;2023-07-13T19:40:19;99232.25;;;23.35;70.98
60427;BME280;46274;47.168;27.604;2023-07-13T19:46:35;99244.69;;;23.42;71.42
60427;BME280;46274;47.168;27.604;2023-07-13T19:52:46;99387.91;;;24.36;70.31
60427;BME280;46274;47.168;27.604;2023-07-13T19:59:04;99387.19;;;24.10;71.25
60427;BME280;46274;47.168;27.604;2023-07-13T20:05:43;99231.50;;;22.42;75.41
60427;BME280;46274;47.168;27.604;2023-07-13T20:18:58;99224.34;;;22.31;74.28
60427;BME280;46274;47.168;27.604;2023-07-13T20:25:01;99285.88;;;22.36;77.75
60427;BME280;46274;47.168;27.604;2023-07-13T20:31:12;99336.09;;;22.28;78.99
60427;BME280;46274;47.168;27.604;2023-07-13T20:37:52;99401.91;;;22.72;77.93
60427;BME280;46274;47.168;27.604;2023-07-13T20:44:07;99026.59;;;19.96;78.65
60427;BME280;46274;47.168;27.604;2023-07-13T20:50:25;99278.34;;;22.16;74.53
60427;BME280;46274;47.168;27.604;2023-07-13T20:56:33;99212.09;;;21.91;71.74
60427;BME280;46274;47.168;27.604;2023-07-13T21:03:04;99327.03;;;22.58;69.82
60427;BME280;46274;47.168;27.604;2023-07-13T21:09:26;99485.47;;;23.41;70.77
60427;BME280;46274;47.168;27.604;2023-07-13T21:15:44;99248.72;;;21.81;71.79
60427;BME280;46274;47.168;27.604;2023-07-13T21:21:49;99467.78;;;23.26;71.22
60427;BME280;46274;47.168;27.604;2023-07-13T21:28:08;99334.75;;;22.46;71.95
60427;BME280;46274;47.168;27.604;2023-07-13T21:34:26;99456.13;;;23.04;72.77
60427;BME280;46274;47.168;27.604;2023-07-13T21:40:36;99336.41;;;22.42;72.34
60427;BME280;46274;47.168;27.604;2023-07-13T21:47:14;99320.38;;;22.39;72.55
60427;BME280;46274;47.168;27.604;2023-07-13T21:53:32;99451.44;;;23.10;72.89
60427;BME280;46274;47.168;27.604;2023-07-13T21:59:45;99417.72;;;23.07;72.74
60427;BME280;46274;47.168;27.604;2023-07-13T22:05:50;99296.19;;;21.35;77.04
60427;BME280;46274;47.168;27.604;2023-07-13T22:12:19;99420.84;;;22.43;75.53
60427;BME280;46274;47.168;27.604;2023-07-13T22:18:29;99202.78;;;20.86;76.18
60427;BME280;46274;47.168;27.604;2023-07-13T22:25:49;99074.28;;;19.80;77.78
60427;BME280;46274;47.168;27.604;2023-07-13T22:32:31;99069.66;;;19.58;78.20
60427;BME280;46274;47.168;27.604;2023-07-13T22:46:40;99128.88;;;19.44;79.87
60427;BME280;46274;47.168;27.604;2023-07-13T22:53:15;99235.47;;;20.45;78.24
60427;BME280;46274;47.168;27.604;2023-07-13T23:07:18;99505.91;;;21.66;78.47
60427;BME280;46274;47.168;27.604;2023-07-13T23:13:49;99177.84;;;19.52;78.13
60427;BME280;46274;47.168;27.604;2023-07-13T23:20:39;99517.22;;;21.38;78.20
60427;BME280;46274;47.168;27.604;2023-07-13T23:27:45;99196.06;;;19.58;77.31
60427;BME280;46274;47.168;27.604;2023-07-13T23:41:48;99413.84;;;20.26;78.96
60427;BME280;46274;47.168;27.604;2023-07-13T23:48:40;99375.00;;;20.01;79.82
60427;BME280;46274;47.168;27.604;2023-07-13T23:55:18;99107.25;;;18.48;78.47
